sensor_id;sensor_type;location;lat;lon;timestamp;pressure;altitude;pressure_sealevel;temperature
61189;BMP280;47054;39.716;2.904;2023-03-01T00:01:39;100264.06;;;13.61
61189;BMP280;47054;39.716;2.904;2023-03-01T00:04:24;100268.59;;;13.61
61189;BMP280;47054;39.716;2.904;2023-03-01T00:07:09;100260.63;;;13.61
61189;BMP280;47054;39.716;2.904;2023-03-01T00:09:53;100268.59;;;13.61
61189;BMP280;47054;39.716;2.904;2023-03-01T00:12:38;100261.41;;;13.61
61189;BMP280;47054;39.716;2.904;2023-03-01T00:15:22;100261.41;;;13.61
61189;BMP280;47054;39.716;2.904;2023-03-01T00:18:08;100255.28;;;13.61
61189;BMP280;47054;39.716;2.904;2023-03-01T00:20:53;100258.72;;;13.61
61189;BMP280;47054;39.716;2.904;2023-03-01T00:23:39;100265.16;;;13.60
61189;BMP280;47054;39.716;2.904;2023-03-01T00:26:25;100268.59;;;13.61
61189;BMP280;47054;39.716;2.904;2023-03-01T00:29:11;100267.47;;;13.62
61189;BMP280;47054;39.716;2.904;2023-03-01T00:31:55;100267.81;;;13.60
61189;BMP280;47054;39.716;2.904;2023-03-01T00:34:40;100264.06;;;13.61
61189;BMP280;47054;39.716;2.904;2023-03-01T00:37:24;100270.03;;;13.58
61189;BMP280;47054;39.716;2.904;2023-03-01T00:40:09;100275.81;;;13.60
61189;BMP280;47054;39.716;2.904;2023-03-01T00:42:54;100267.81;;;13.60
61189;BMP280;47054;39.716;2.904;2023-03-01T00:45:39;100271.59;;;13.59
61189;BMP280;47054;39.716;2.904;2023-03-01T00:48:24;100278.13;;;13.62
61189;BMP280;47054;39.716;2.904;2023-03-01T00:51:17;100262.50;;;13.60
61189;BMP280;47054;39.716;2.904;2023-03-01T00:54:02;100270.47;;;13.60
61189;BMP280;47054;39.716;2.904;2023-03-01T00:56:47;100266.25;;;13.59
61189;BMP280;47054;39.716;2.904;2023-03-01T00:59:31;100272.38;;;13.60
61189;BMP280;47054;39.716;2.904;2023-03-01T01:02:17;100267.81;;;13.60
61189;BMP280;47054;39.716;2.904;2023-03-01T01:05:03;100263.59;;;13.59
61189;BMP280;47054;39.716;2.904;2023-03-01T01:07:48;100267.81;;;13.60
61189;BMP280;47054;39.716;2.904;2023-03-01T01:10:34;100267.03;;;13.60
61189;BMP280;47054;39.716;2.904;2023-03-01T01:13:18;100263.28;;;13.61
61189;BMP280;47054;39.716;2.904;2023-03-01T01:16:03;100264.38;;;13.60
61189;BMP280;47054;39.716;2.904;2023-03-01T01:18:48;100259.03;;;13.60
61189;BMP280;47054;39.716;2.904;2023-03-01T01:21:34;100267.03;;;13.60
61189;BMP280;47054;39.716;2.904;2023-03-01T01:24:18;100263.59;;;13.59
61189;BMP280;47054;39.716;2.904;2023-03-01T01:27:03;100251.06;;;13.60
61189;BMP280;47054;39.716;2.904;2023-03-01T01:29:48;100253.72;;;13.60
61189;BMP280;47054;39.716;2.904;2023-03-01T01:32:32;100243.41;;;13.58
61189;BMP280;47054;39.716;2.904;2023-03-01T01:35:17;100240.41;;;13.60
61189;BMP280;47054;39.716;2.904;2023-03-01T01:38:02;100231.63;;;13.59
61189;BMP280;47054;39.716;2.904;2023-03-01T01:40:47;100231.63;;;13.59
61189;BMP280;47054;39.716;2.904;2023-03-01T01:43:41;100210.22;;;13.56
61189;BMP280;47054;39.716;2.904;2023-03-01T01:46:30;100217.97;;;13.61
61189;BMP280;47054;39.716;2.904;2023-03-01T01:49:37;100217.19;;;13.60
61189;BMP280;47054;39.716;2.904;2023-03-01T01:52:33;100217.97;;;13.61
61189;BMP280;47054;39.716;2.904;2023-03-01T01:55:22;100227.06;;;13.60
61189;BMP280;47054;39.716;2.904;2023-03-01T01:58:10;100216.41;;;13.60
61189;BMP280;47054;39.716;2.904;2023-03-01T02:00:55;100220.19;;;13.59
61189;BMP280;47054;39.716;2.904;2023-03-01T02:03:42;100225.41;;;13.55
61189;BMP280;47054;39.716;2.904;2023-03-01T02:06:32;100234.28;;;13.59
61189;BMP280;47054;39.716;2.904;2023-03-01T02:09:20;100231.63;;;13.59
61189;BMP280;47054;39.716;2.904;2023-03-01T02:12:06;100231.63;;;13.59
61189;BMP280;47054;39.716;2.904;2023-03-01T02:14:51;100222.31;;;13.53
61189;BMP280;47054;39.716;2.904;2023-03-01T02:17:37;100220.44;;;13.54
61189;BMP280;47054;39.716;2.904;2023-03-01T02:23:31;100223.97;;;13.58
61189;BMP280;47054;39.716;2.904;2023-03-01T02:26:38;100221.31;;;13.58
61189;BMP280;47054;39.716;2.904;2023-03-01T02:29:25;100218.66;;;13.58
61189;BMP280;47054;39.716;2.904;2023-03-01T02:32:12;100219.44;;;13.58
61189;BMP280;47054;39.716;2.904;2023-03-01T02:34:57;100212.56;;;13.57
61189;BMP280;47054;39.716;2.904;2023-03-01T02:37:43;100209.53;;;13.59
61189;BMP280;47054;39.716;2.904;2023-03-01T02:40:30;100204.19;;;13.59
61189;BMP280;47054;39.716;2.904;2023-03-01T02:43:19;100193.03;;;13.53
61189;BMP280;47054;39.716;2.904;2023-03-01T02:46:13;100198.88;;;13.59
61189;BMP280;47054;39.716;2.904;2023-03-01T02:48:59;100200.78;;;13.58
61189;BMP280;47054;39.716;2.904;2023-03-01T02:51:56;100207.66;;;13.59
61189;BMP280;47054;39.716;2.904;2023-03-01T02:57:44;100188.91;;;13.56
61189;BMP280;47054;39.716;2.904;2023-03-01T03:00:41;100186.34;;;13.59
61189;BMP280;47054;39.716;2.904;2023-03-01T03:03:30;100171.72;;;13.53
61189;BMP280;47054;39.716;2.904;2023-03-01T03:06:15;100174.16;;;13.58
61189;BMP280;47054;39.716;2.904;2023-03-01T03:09:00;100173.38;;;13.58
61189;BMP280;47054;39.716;2.904;2023-03-01T03:11:46;100164.63;;;13.57
61189;BMP280;47054;39.716;2.904;2023-03-01T03:14:31;100164.16;;;13.55
61189;BMP280;47054;39.716;2.904;2023-03-01T03:17:19;100159.63;;;13.56
61189;BMP280;47054;39.716;2.904;2023-03-01T03:20:05;100160.81;;;13.58
61189;BMP280;47054;39.716;2.904;2023-03-01T03:22:52;100161.97;;;13.57
61189;BMP280;47054;39.716;2.904;2023-03-01T03:25:37;100169.94;;;13.57
61189;BMP280;47054;39.716;2.904;2023-03-01T03:28:22;100164.94;;;13.56
61189;BMP280;47054;39.716;2.904;2023-03-01T03:31:07;100166.50;;;13.57
61189;BMP280;47054;39.716;2.904;2023-03-01T03:33:52;100155.72;;;13.53
61189;BMP280;47054;39.716;2.904;2023-03-01T03:36:37;100157.38;;;13.58
61189;BMP280;47054;39.716;2.904;2023-03-01T03:39:23;100160.03;;;13.58
61189;BMP280;47054;39.716;2.904;2023-03-01T03:42:07;100153.06;;;13.53
61189;BMP280;47054;39.716;2.904;2023-03-01T03:44:54;100154.72;;;13.58
61189;BMP280;47054;39.716;2.904;2023-03-01T03:47:39;100157.72;;;13.56
61189;BMP280;47054;39.716;2.904;2023-03-01T03:50:23;100159.63;;;13.56
61189;BMP280;47054;39.716;2.904;2023-03-01T03:53:10;100160.03;;;13.58
61189;BMP280;47054;39.716;2.904;2023-03-01T03:55:55;100151.97;;;13.54
61189;BMP280;47054;39.716;2.904;2023-03-01T03:58:40;100164.63;;;13.57
61189;BMP280;47054;39.716;2.904;2023-03-01T04:01:24;100159.28;;;13.57
61189;BMP280;47054;39.716;2.904;2023-03-01T04:04:09;100165.72;;;13.56
61189;BMP280;47054;39.716;2.904;2023-03-01T04:06:54;100160.28;;;13.53
61189;BMP280;47054;39.716;2.904;2023-03-01T04:09:38;100168.72;;;13.55
61189;BMP280;47054;39.716;2.904;2023-03-01T04:12:23;100176.03;;;13.58
61189;BMP280;47054;39.716;2.904;2023-03-01T04:15:07;100168.72;;;13.55
61189;BMP280;47054;39.716;2.904;2023-03-01T04:17:59;100168.03;;;13.58
61189;BMP280;47054;39.716;2.904;2023-03-01T04:20:44;100173.72;;;13.56
61189;BMP280;47054;39.716;2.904;2023-03-01T04:23:29;100175.28;;;13.57
61189;BMP280;47054;39.716;2.904;2023-03-01T04:26:13;100180.59;;;13.57
61189;BMP280;47054;39.716;2.904;2023-03-01T04:28:58;100181.69;;;13.56
61189;BMP280;47054;39.716;2.904;2023-03-01T04:31:43;100176.38;;;13.56
61189;BMP280;47054;39.716;2.904;2023-03-01T04:34:27;100183.59;;;13.56
61189;BMP280;47054;39.716;2.904;2023-03-01T04:37:12;100175.59;;;13.56
61189;BMP280;47054;39.716;2.904;2023-03-01T04:39:56;100173.59;;;13.53
61189;BMP280;47054;39.716;2.904;2023-03-01T04:42:41;100180.59;;;13.57
61189;BMP280;47054;39.716;2.904;2023-03-01T04:45:26;100181.69;;;13.56
61189;BMP280;47054;39.716;2.904;2023-03-01T04:48:11;100175.28;;;13.57
61189;BMP280;47054;39.716;2.904;2023-03-01T04:50:56;100165.72;;;13.56
61189;BMP280;47054;39.716;2.904;2023-03-01T04:53:41;100161.50;;;13.55
61189;BMP280;47054;39.716;2.904;2023-03-01T04:56:26;100165.72;;;13.56
61189;BMP280;47054;39.716;2.904;2023-03-01T04:59:10;100156.16;;;13.55
61189;BMP280;47054;39.716;2.904;2023-03-01T05:01:56;100167.28;;;13.57
61189;BMP280;47054;39.716;2.904;2023-03-01T05:04:41;100166.81;;;13.55
61189;BMP280;47054;39.716;2.904;2023-03-01T05:07:25;100169.47;;;13.55
61189;BMP280;47054;39.716;2.904;2023-03-01T05:10:10;100170.53;;;13.51
61189;BMP280;47054;39.716;2.904;2023-03-01T05:12:55;100176.38;;;13.56
61189;BMP280;47054;39.716;2.904;2023-03-01T05:15:41;100185.47;;;13.55
61189;BMP280;47054;39.716;2.904;2023-03-01T05:18:27;100183.59;;;13.56
61189;BMP280;47054;39.716;2.904;2023-03-01T05:21:13;100188.13;;;13.55
61189;BMP280;47054;39.716;2.904;2023-03-01T05:24:01;100180.13;;;13.55
61189;BMP280;47054;39.716;2.904;2023-03-01T05:26:46;100185.47;;;13.55
61189;BMP280;47054;39.716;2.904;2023-03-01T05:29:32;100198.03;;;13.55
61189;BMP280;47054;39.716;2.904;2023-03-01T05:32:19;100193.47;;;13.55
61189;BMP280;47054;39.716;2.904;2023-03-01T05:35:03;100188.00;;;13.52
61189;BMP280;47054;39.716;2.904;2023-03-01T05:37:49;100188.13;;;13.55
61189;BMP280;47054;39.716;2.904;2023-03-01T05:40:34;100190.78;;;13.55
61189;BMP280;47054;39.716;2.904;2023-03-01T05:43:19;100188.13;;;13.55
61189;BMP280;47054;39.716;2.904;2023-03-01T05:46:03;100199.91;;;13.54
61189;BMP280;47054;39.716;2.904;2023-03-01T05:48:48;100190.03;;;13.55
61189;BMP280;47054;39.716;2.904;2023-03-01T05:51:34;100191.91;;;13.54
61189;BMP280;47054;39.716;2.904;2023-03-01T05:54:20;100190.78;;;13.55
61189;BMP280;47054;39.716;2.904;2023-03-01T05:57:05;100190.03;;;13.55
61189;BMP280;47054;39.716;2.904;2023-03-01T05:59:49;100178.84;;;13.49
61189;BMP280;47054;39.716;2.904;2023-03-01T06:02:34;100183.38;;;13.49
61189;BMP280;47054;39.716;2.904;2023-03-01T06:05:18;100189.25;;;13.54
61189;BMP280;47054;39.716;2.904;2023-03-01T06:08:03;100178.84;;;13.49
61189;BMP280;47054;39.716;2.904;2023-03-01T06:10:48;100187.69;;;13.53
61189;BMP280;47054;39.716;2.904;2023-03-01T06:13:32;100189.25;;;13.54
61189;BMP280;47054;39.716;2.904;2023-03-01T06:16:17;100184.25;;;13.53
61189;BMP280;47054;39.716;2.904;2023-03-01T06:19:02;100191.91;;;13.54
61189;BMP280;47054;39.716;2.904;2023-03-01T06:21:46;100191.13;;;13.54
61189;BMP280;47054;39.716;2.904;2023-03-01T06:24:31;100198.03;;;13.55
61189;BMP280;47054;39.716;2.904;2023-03-01T06:27:16;100192.16;;;13.49
61189;BMP280;47054;39.716;2.904;2023-03-01T06:30:00;100205.25;;;13.54
61189;BMP280;47054;39.716;2.904;2023-03-01T06:32:47;100209.00;;;13.53
61189;BMP280;47054;39.716;2.904;2023-03-01T06:35:32;100202.91;;;13.53
61189;BMP280;47054;39.716;2.904;2023-03-01T06:38:16;100215.13;;;13.54
61189;BMP280;47054;39.716;2.904;2023-03-01T06:41:04;100206.34;;;13.53
61189;BMP280;47054;39.716;2.904;2023-03-01T06:43:48;100208.22;;;13.53
61189;BMP280;47054;39.716;2.904;2023-03-01T06:46:33;100211.25;;;13.51
61189;BMP280;47054;39.716;2.904;2023-03-01T06:49:17;100201.59;;;13.47
61189;BMP280;47054;39.716;2.904;2023-03-01T06:52:02;100196.16;;;13.43
61189;BMP280;47054;39.716;2.904;2023-03-01T06:54:47;100222.22;;;13.50
61189;BMP280;47054;39.716;2.904;2023-03-01T06:57:32;100226.88;;;13.53
61189;BMP280;47054;39.716;2.904;2023-03-01T07:00:17;100234.84;;;13.53
61189;BMP280;47054;39.716;2.904;2023-03-01T07:03:02;100225.31;;;13.52
61189;BMP280;47054;39.716;2.904;2023-03-01T07:05:51;100230.31;;;13.53
61189;BMP280;47054;39.716;2.904;2023-03-01T07:08:38;100233.28;;;13.52
61189;BMP280;47054;39.716;2.904;2023-03-01T07:11:24;100246.63;;;13.52
61189;BMP280;47054;39.716;2.904;2023-03-01T07:14:08;100236.66;;;13.49
61189;BMP280;47054;39.716;2.904;2023-03-01T07:16:54;100244.97;;;13.47
61189;BMP280;47054;39.716;2.904;2023-03-01T07:19:38;100248.19;;;13.53
61189;BMP280;47054;39.716;2.904;2023-03-01T07:22:23;100250.44;;;13.51
61189;BMP280;47054;39.716;2.904;2023-03-01T07:25:09;100250.06;;;13.52
61189;BMP280;47054;39.716;2.904;2023-03-01T07:27:54;100243.75;;;13.45
61189;BMP280;47054;39.716;2.904;2023-03-01T07:30:38;100262.59;;;13.52
61189;BMP280;47054;39.716;2.904;2023-03-01T07:33:24;100261.88;;;13.51
61189;BMP280;47054;39.716;2.904;2023-03-01T07:36:09;100259.22;;;13.51
61189;BMP280;47054;39.716;2.904;2023-03-01T07:38:54;100263.38;;;13.52
61189;BMP280;47054;39.716;2.904;2023-03-01T07:41:40;100263.38;;;13.52
61189;BMP280;47054;39.716;2.904;2023-03-01T07:44:24;100266.81;;;13.53
61189;BMP280;47054;39.716;2.904;2023-03-01T07:47:08;100274.03;;;13.52
61189;BMP280;47054;39.716;2.904;2023-03-01T07:49:53;100273.63;;;13.50
61189;BMP280;47054;39.716;2.904;2023-03-01T07:52:38;100267.19;;;13.51
61189;BMP280;47054;39.716;2.904;2023-03-01T07:55:22;100279.34;;;13.52
61189;BMP280;47054;39.716;2.904;2023-03-01T07:58:07;100273.81;;;13.45
61189;BMP280;47054;39.716;2.904;2023-03-01T08:00:51;100285.06;;;13.51
61189;BMP280;47054;39.716;2.904;2023-03-01T08:03:36;100287.34;;;13.52
61189;BMP280;47054;39.716;2.904;2023-03-01T08:06:21;100289.22;;;13.52
61189;BMP280;47054;39.716;2.904;2023-03-01T08:09:06;100276.16;;;13.47
61189;BMP280;47054;39.716;2.904;2023-03-01T08:11:52;100278.56;;;13.52
61189;BMP280;47054;39.716;2.904;2023-03-01T08:14:36;100279.72;;;13.51
61189;BMP280;47054;39.716;2.904;2023-03-01T08:17:21;100286.56;;;13.52
61189;BMP280;47054;39.716;2.904;2023-03-01T08:20:06;100287.34;;;13.52
61189;BMP280;47054;39.716;2.904;2023-03-01T08:22:52;100280.50;;;13.51
61189;BMP280;47054;39.716;2.904;2023-03-01T08:25:37;100288.13;;;13.53
61189;BMP280;47054;39.716;2.904;2023-03-01T08:28:21;100297.22;;;13.52
61189;BMP280;47054;39.716;2.904;2023-03-01T08:31:27;100285.84;;;13.51
61189;BMP280;47054;39.716;2.904;2023-03-01T08:34:14;100285.38;;;13.49
61189;BMP280;47054;39.716;2.904;2023-03-01T08:36:59;100282.41;;;13.51
61189;BMP280;47054;39.716;2.904;2023-03-01T08:39:43;100283.50;;;13.50
61189;BMP280;47054;39.716;2.904;2023-03-01T08:42:28;100288.50;;;13.51
61189;BMP280;47054;39.716;2.904;2023-03-01T08:45:12;100282.41;;;13.51
61189;BMP280;47054;39.716;2.904;2023-03-01T08:48:02;100278.16;;;13.50
61189;BMP280;47054;39.716;2.904;2023-03-01T08:50:47;100288.50;;;13.51
61189;BMP280;47054;39.716;2.904;2023-03-01T08:53:31;100283.19;;;13.51
61189;BMP280;47054;39.716;2.904;2023-03-01T08:56:16;100280.81;;;13.50
61189;BMP280;47054;39.716;2.904;2023-03-01T08:59:02;100277.06;;;13.51
61189;BMP280;47054;39.716;2.904;2023-03-01T09:01:47;100276.28;;;13.50
61189;BMP280;47054;39.716;2.904;2023-03-01T09:04:31;100283.19;;;13.51
61189;BMP280;47054;39.716;2.904;2023-03-01T09:07:17;100270.75;;;13.43
61189;BMP280;47054;39.716;2.904;2023-03-01T09:10:02;100285.38;;;13.49
61189;BMP280;47054;39.716;2.904;2023-03-01T09:12:47;100289.59;;;13.50
61189;BMP280;47054;39.716;2.904;2023-03-01T09:15:32;100292.28;;;13.50
61189;BMP280;47054;39.716;2.904;2023-03-01T09:18:18;100293.06;;;13.51
61189;BMP280;47054;39.716;2.904;2023-03-01T09:21:05;100287.72;;;13.51
61189;BMP280;47054;39.716;2.904;2023-03-01T09:23:56;100286.16;;;13.50
61189;BMP280;47054;39.716;2.904;2023-03-01T09:26:41;100270.06;;;13.46
61189;BMP280;47054;39.716;2.904;2023-03-01T09:29:25;100278.16;;;13.50
61189;BMP280;47054;39.716;2.904;2023-03-01T09:32:10;100276.28;;;13.50
61189;BMP280;47054;39.716;2.904;2023-03-01T09:34:55;100270.97;;;13.50
61189;BMP280;47054;39.716;2.904;2023-03-01T09:37:48;100274.84;;;13.41
61189;BMP280;47054;39.716;2.904;2023-03-01T09:40:34;100264.94;;;13.41
61189;BMP280;47054;39.716;2.904;2023-03-01T09:46:10;100258.63;;;13.46
61189;BMP280;47054;39.716;2.904;2023-03-01T09:49:02;100261.75;;;13.48
61189;BMP280;47054;39.716;2.904;2023-03-01T09:51:55;100267.06;;;13.48
61189;BMP280;47054;39.716;2.904;2023-03-01T09:54:41;100247.66;;;13.47
61189;BMP280;47054;39.716;2.904;2023-03-01T09:57:41;100247.66;;;13.47
61189;BMP280;47054;39.716;2.904;2023-03-01T10:00:45;100252.97;;;13.47
61189;BMP280;47054;39.716;2.904;2023-03-01T10:10:32;100252.50;;;13.45
61189;BMP280;47054;39.716;2.904;2023-03-01T10:13:31;100255.16;;;13.45
61189;BMP280;47054;39.716;2.904;2023-03-01T10:16:22;100258.63;;;13.46
61189;BMP280;47054;39.716;2.904;2023-03-01T10:19:16;100243.41;;;13.46
61189;BMP280;47054;39.716;2.904;2023-03-01T10:22:13;100237.00;;;13.47
61189;BMP280;47054;39.716;2.904;2023-03-01T10:25:02;100226.34;;;13.47
61189;BMP280;47054;39.716;2.904;2023-03-01T10:27:52;100223.69;;;13.47
61189;BMP280;47054;39.716;2.904;2023-03-01T10:30:39;100231.66;;;13.47
61189;BMP280;47054;39.716;2.904;2023-03-01T10:33:32;100219.88;;;13.48
61189;BMP280;47054;39.716;2.904;2023-03-01T10:36:17;100223.22;;;13.45
61189;BMP280;47054;39.716;2.904;2023-03-01T10:39:14;100222.53;;;13.48
61189;BMP280;47054;39.716;2.904;2023-03-01T10:42:05;100219.88;;;13.48
61189;BMP280;47054;39.716;2.904;2023-03-01T10:44:50;100215.69;;;13.47
61189;BMP280;47054;39.716;2.904;2023-03-01T10:47:34;100202.69;;;13.46
61189;BMP280;47054;39.716;2.904;2023-03-01T10:50:21;100220.66;;;13.49
61189;BMP280;47054;39.716;2.904;2023-03-01T10:56:09;100221.44;;;13.49
61189;BMP280;47054;39.716;2.904;2023-03-01T10:59:03;100213.47;;;13.49
61189;BMP280;47054;39.716;2.904;2023-03-01T11:02:22;100206.03;;;13.43
61189;BMP280;47054;39.716;2.904;2023-03-01T11:05:22;100218.00;;;13.49
61189;BMP280;47054;39.716;2.904;2023-03-01T11:08:09;100202.59;;;13.42
61189;BMP280;47054;39.716;2.904;2023-03-01T11:11:04;100217.22;;;13.48
61189;BMP280;47054;39.716;2.904;2023-03-01T11:13:55;100210.34;;;13.47
61189;BMP280;47054;39.716;2.904;2023-03-01T11:16:43;100214.56;;;13.48
61189;BMP280;47054;39.716;2.904;2023-03-01T11:19:28;100214.56;;;13.48
61189;BMP280;47054;39.716;2.904;2023-03-01T11:22:18;100202.59;;;13.42
61189;BMP280;47054;39.716;2.904;2023-03-01T11:25:05;100210.78;;;13.49
61189;BMP280;47054;39.716;2.904;2023-03-01T11:27:49;100208.91;;;13.50
61189;BMP280;47054;39.716;2.904;2023-03-01T11:30:49;100213.94;;;13.51
61189;BMP280;47054;39.716;2.904;2023-03-01T11:33:56;100208.59;;;13.51
61189;BMP280;47054;39.716;2.904;2023-03-01T11:37:02;100208.22;;;13.53
61189;BMP280;47054;39.716;2.904;2023-03-01T11:40:03;100207.91;;;13.54
61189;BMP280;47054;39.716;2.904;2023-03-01T11:43:23;100200.69;;;13.55
61189;BMP280;47054;39.716;2.904;2023-03-01T12:10:22;100181.31;;;13.70
61189;BMP280;47054;39.716;2.904;2023-03-01T12:16:40;100180.97;;;13.71
61189;BMP280;47054;39.716;2.904;2023-03-01T12:31:41;100168.38;;;13.84
61189;BMP280;47054;39.716;2.904;2023-03-01T12:37:42;100158.59;;;13.88
61189;BMP280;47054;39.716;2.904;2023-03-01T12:43:37;100151.13;;;13.93
61189;BMP280;47054;39.716;2.904;2023-03-01T12:49:45;100153.09;;;13.97
61189;BMP280;47054;39.716;2.904;2023-03-01T12:52:50;100150.88;;;13.99
61189;BMP280;47054;39.716;2.904;2023-03-01T12:55:39;100135.31;;;14.01
61189;BMP280;47054;39.716;2.904;2023-03-01T13:02:10;100140.41;;;14.06
61189;BMP280;47054;39.716;2.904;2023-03-01T13:05:23;100140.03;;;14.07
61189;BMP280;47054;39.716;2.904;2023-03-01T13:11:02;100133.75;;;14.15
61189;BMP280;47054;39.716;2.904;2023-03-01T13:13:48;100123.41;;;14.14
61189;BMP280;47054;39.716;2.904;2023-03-01T13:16:41;100126.63;;;14.19
61189;BMP280;47054;39.716;2.904;2023-03-01T13:19:30;100135.06;;;14.21
61189;BMP280;47054;39.716;2.904;2023-03-01T13:22:31;100132.50;;;14.25
61189;BMP280;47054;39.716;2.904;2023-03-01T13:25:19;100127.91;;;14.25
61189;BMP280;47054;39.716;2.904;2023-03-01T13:28:44;100129.03;;;14.24
61189;BMP280;47054;39.716;2.904;2023-03-01T13:34:51;100127.59;;;14.27
61189;BMP280;47054;39.716;2.904;2023-03-01T13:37:37;100124.56;;;14.28
61189;BMP280;47054;39.716;2.904;2023-03-01T13:43:37;100117.03;;;14.30
61189;BMP280;47054;39.716;2.904;2023-03-01T13:46:23;100118.19;;;14.33
61189;BMP280;47054;39.716;2.904;2023-03-01T13:49:13;100119.75;;;14.34
61189;BMP280;47054;39.716;2.904;2023-03-01T13:51:59;100118.97;;;14.33
61189;BMP280;47054;39.716;2.904;2023-03-01T13:54:43;100118.63;;;14.35
61189;BMP280;47054;39.716;2.904;2023-03-01T13:57:33;100110.63;;;14.35
61189;BMP280;47054;39.716;2.904;2023-03-01T14:00:35;100109.16;;;14.37
61189;BMP280;47054;39.716;2.904;2023-03-01T14:03:20;100106.44;;;14.34
61189;BMP280;47054;39.716;2.904;2023-03-01T14:06:13;100100.31;;;14.33
61189;BMP280;47054;39.716;2.904;2023-03-01T14:09:20;100098.84;;;14.36
61189;BMP280;47054;39.716;2.904;2023-03-01T14:15:42;100097.34;;;14.38
61189;BMP280;47054;39.716;2.904;2023-03-01T14:18:42;100101.59;;;14.39
61189;BMP280;47054;39.716;2.904;2023-03-01T14:21:30;100094.69;;;14.38
61189;BMP280;47054;39.716;2.904;2023-03-01T14:24:20;100098.25;;;14.42
61189;BMP280;47054;39.716;2.904;2023-03-01T14:27:11;100094.78;;;14.42
61189;BMP280;47054;39.716;2.904;2023-03-01T14:29:58;100096.00;;;14.44
61189;BMP280;47054;39.716;2.904;2023-03-01T14:32:52;100091.09;;;14.46
61189;BMP280;47054;39.716;2.904;2023-03-01T14:35:37;100089.53;;;14.45
61189;BMP280;47054;39.716;2.904;2023-03-01T14:38:40;100093.75;;;14.46
61189;BMP280;47054;39.716;2.904;2023-03-01T14:41:27;100100.25;;;14.49
61189;BMP280;47054;39.716;2.904;2023-03-01T14:44:19;100092.72;;;14.51
61189;BMP280;47054;39.716;2.904;2023-03-01T14:47:04;100089.69;;;14.52
61189;BMP280;47054;39.716;2.904;2023-03-01T14:49:57;100083.25;;;14.53
61189;BMP280;47054;39.716;2.904;2023-03-01T14:52:46;100087.56;;;14.58
61189;BMP280;47054;39.716;2.904;2023-03-01T14:55:40;100084.16;;;14.61
61189;BMP280;47054;39.716;2.904;2023-03-01T14:58:26;100078.47;;;14.62
61189;BMP280;47054;39.716;2.904;2023-03-01T15:01:14;100077.03;;;14.65
61189;BMP280;47054;39.716;2.904;2023-03-01T15:04:00;100073.97;;;14.66
61189;BMP280;47054;39.716;2.904;2023-03-01T15:06:46;100066.75;;;14.67
61189;BMP280;47054;39.716;2.904;2023-03-01T15:09:34;100063.06;;;14.72
61189;BMP280;47054;39.716;2.904;2023-03-01T15:12:37;100058.91;;;14.74
61189;BMP280;47054;39.716;2.904;2023-03-01T15:18:21;100063.97;;;14.79
61189;BMP280;47054;39.716;2.904;2023-03-01T15:24:23;100061.75;;;14.81
61189;BMP280;47054;39.716;2.904;2023-03-01T15:27:20;100054.50;;;14.82
61189;BMP280;47054;39.716;2.904;2023-03-01T15:30:06;100046.91;;;14.84
61189;BMP280;47054;39.716;2.904;2023-03-01T15:39:36;100046.66;;;14.89
61189;BMP280;47054;39.716;2.904;2023-03-01T15:48:14;100060.91;;;14.96
61189;BMP280;47054;39.716;2.904;2023-03-01T15:51:00;100053.66;;;14.97
61189;BMP280;47054;39.716;2.904;2023-03-01T15:53:50;100047.66;;;15.00
61189;BMP280;47054;39.716;2.904;2023-03-01T15:56:35;100047.66;;;15.00
61189;BMP280;47054;39.716;2.904;2023-03-01T15:59:20;100043.47;;;15.02
61189;BMP280;47054;39.716;2.904;2023-03-01T16:02:10;100051.13;;;15.04
61189;BMP280;47054;39.716;2.904;2023-03-01T16:04:56;100044.59;;;15.01
61189;BMP280;47054;39.716;2.904;2023-03-01T16:07:41;100044.34;;;15.06
61189;BMP280;47054;39.716;2.904;2023-03-01T16:10:27;100043.94;;;15.08
61189;BMP280;47054;39.716;2.904;2023-03-01T16:13:12;100032.44;;;15.04
61189;BMP280;47054;39.716;2.904;2023-03-01T16:15:58;100037.84;;;15.07
61189;BMP280;47054;39.716;2.904;2023-03-01T16:18:44;100036.81;;;15.12
61189;BMP280;47054;39.716;2.904;2023-03-01T16:21:29;100031.75;;;15.07
61189;BMP280;47054;39.716;2.904;2023-03-01T16:24:15;100029.91;;;15.11
61189;BMP280;47054;39.716;2.904;2023-03-01T16:27:00;100037.22;;;15.14
61189;BMP280;47054;39.716;2.904;2023-03-01T16:29:44;100030.75;;;15.15
61189;BMP280;47054;39.716;2.904;2023-03-01T16:34:17;100035.31;;;15.14
61189;BMP280;47054;39.716;2.904;2023-03-01T16:37:02;100044.09;;;15.15
61189;BMP280;47054;39.716;2.904;2023-03-01T16:39:46;100044.88;;;15.15
61189;BMP280;47054;39.716;2.904;2023-03-01T16:42:35;100041.09;;;15.16
61189;BMP280;47054;39.716;2.904;2023-03-01T16:45:26;100035.66;;;15.13
61189;BMP280;47054;39.716;2.904;2023-03-01T16:48:12;100042.22;;;15.15
61189;BMP280;47054;39.716;2.904;2023-03-01T16:51:01;100047.53;;;15.15
61189;BMP280;47054;39.716;2.904;2023-03-01T16:53:45;100046.34;;;15.13
61189;BMP280;47054;39.716;2.904;2023-03-01T16:56:30;100049.03;;;15.13
61189;BMP280;47054;39.716;2.904;2023-03-01T16:59:17;100041.28;;;15.08
61189;BMP280;47054;39.716;2.904;2023-03-01T17:02:10;100040.13;;;15.05
61189;BMP280;47054;39.716;2.904;2023-03-01T17:04:55;100059.63;;;15.09
61189;BMP280;47054;39.716;2.904;2023-03-01T17:07:40;100054.63;;;15.08
61189;BMP280;47054;39.716;2.904;2023-03-01T17:10:25;100051.56;;;15.06
61189;BMP280;47054;39.716;2.904;2023-03-01T17:13:10;100060.38;;;15.06
61189;BMP280;47054;39.716;2.904;2023-03-01T17:15:59;100059.59;;;15.06
61189;BMP280;47054;39.716;2.904;2023-03-01T17:18:44;100068.69;;;15.05
61189;BMP280;47054;39.716;2.904;2023-03-01T17:21:29;100066.72;;;15.02
61189;BMP280;47054;39.716;2.904;2023-03-01T17:24:15;100075.09;;;15.00
61189;BMP280;47054;39.716;2.904;2023-03-01T17:26:59;100068.22;;;14.99
61189;BMP280;47054;39.716;2.904;2023-03-01T17:29:44;100066.66;;;14.98
61189;BMP280;47054;39.716;2.904;2023-03-01T17:32:28;100077.34;;;14.98
61189;BMP280;47054;39.716;2.904;2023-03-01T17:35:13;100083.00;;;14.97
61189;BMP280;47054;39.716;2.904;2023-03-01T17:37:58;100080.69;;;14.95